Time;durP1;ratioP1;P1;durP2;ratioP2;P2;SDS_P1;SDS_P2;PMS_P1;PMS_P2;Temp;Humidity;BMP_temperature;BMP_pressure;BME280_temperature;BME280_humidity;BME280_pressure;Samples;Min_cycle;Max_cycle;Signal;HPM_P1;HPM_P2
2024/01/13 00:01:50;;;;;;;8.63;4.57;;;2.70;99.90;;;;;;5034443;28;20636;-70
2024/01/13 00:04:16;;;;;;;11.45;5.32;;;2.70;99.90;;;;;;5042612;28;20033;-69
2024/01/13 00:06:42;;;;;;;11.45;5.43;;;2.70;99.90;;;;;;5028742;28;20069;-70
2024/01/13 00:09:07;;;;;;;9.55;5.35;;;2.70;99.90;;;;;;5029800;28;20168;-70
2024/01/13 00:11:33;;;;;;;10.57;5.45;;;2.70;99.90;;;;;;5029951;28;20192;-70
2024/01/13 00:13:59;;;;;;;12.98;5.85;;;2.70;99.90;;;;;;5029025;28;20049;-68
2024/01/13 00:16:25;;;;;;;12.70;5.60;;;2.70;99.90;;;;;;5039632;28;20026;-70
2024/01/13 00:18:51;;;;;;;13.02;6.00;;;2.70;99.90;;;;;;5036759;28;20041;-71
2024/01/13 00:21:16;;;;;;;13.77;5.72;;;2.70;99.90;;;;;;5017851;28;20560;-70
2024/01/13 00:23:42;;;;;;;15.45;5.72;;;2.70;99.90;;;;;;5033160;28;20068;-70
2024/01/13 00:26:08;;;;;;;18.30;5.93;;;2.70;99.90;;;;;;5038490;28;20036;-71
2024/01/13 00:28:33;;;;;;;10.55;5.15;;;2.70;99.90;;;;;;5035314;28;20045;-70
2024/01/13 00:30:59;;;;;;;11.70;5.45;;;2.70;99.90;;;;;;5029125;28;20111;-70
2024/01/13 00:33:25;;;;;;;12.25;4.90;;;2.70;99.90;;;;;;5022019;28;20153;-68
2024/01/13 00:35:50;;;;;;;10.40;4.57;;;2.70;99.90;;;;;;5030922;28;20033;-69
2024/01/13 00:38:16;;;;;;;13.18;5.43;;;2.70;99.90;;;;;;5027818;28;20111;-70
2024/01/13 00:40:42;;;;;;;15.65;5.10;;;2.70;99.90;;;;;;5030084;28;20147;-71
2024/01/13 00:43:08;;;;;;;14.32;4.90;;;2.70;99.90;;;;;;5029910;28;20038;-72
2024/01/13 00:45:34;;;;;;;11.32;4.85;;;2.70;99.90;;;;;;5036058;28;20041;-73
2024/01/13 00:48:01;;;;;;;11.00;4.80;;;2.70;99.90;;;;;;5048384;28;20049;-71
2024/01/13 00:50:27;;;;;;;11.27;4.60;;;2.70;99.90;;;;;;5037994;28;20042;-72
2024/01/13 00:52:53;;;;;;;14.60;5.35;;;2.70;99.90;;;;;;5027311;28;20507;-68
2024/01/13 00:55:18;;;;;;;10.65;4.22;;;2.80;99.90;;;;;;5018662;28;20525;-70
2024/01/13 00:57:44;;;;;;;8.93;4.53;;;2.80;99.90;;;;;;5029410;28;20063;-72
2024/01/13 01:00:13;;;;;;;11.98;5.00;;;2.80;99.90;;;;;;5021766;28;20306;-68
2024/01/13 01:02:38;;;;;;;12.52;4.18;;;2.80;99.90;;;;;;5028340;28;20033;-70
2024/01/13 01:05:04;;;;;;;10.68;4.68;;;2.80;99.90;;;;;;5027612;28;20409;-71
2024/01/13 01:07:32;;;;;;;9.23;4.47;;;2.80;99.90;;;;;;5030737;28;20124;-68
2024/01/13 01:09:58;;;;;;;9.65;4.65;;;2.80;99.90;;;;;;5021480;28;20037;-69
2024/01/13 01:12:23;;;;;;;11.32;4.28;;;2.80;99.90;;;;;;5032204;28;20449;-70
2024/01/13 01:14:49;;;;;;;11.63;4.80;;;2.90;99.90;;;;;;5029861;28;20040;-69
2024/01/13 01:17:14;;;;;;;11.93;4.55;;;2.80;99.90;;;;;;5036593;28;20033;-68
2024/01/13 01:19:40;;;;;;;12.98;4.43;;;2.80;99.90;;;;;;5029207;28;20098;-69
2024/01/13 01:22:06;;;;;;;14.55;5.18;;;2.80;99.90;;;;;;5033377;28;20946;-69
2024/01/13 01:24:31;;;;;;;13.65;4.70;;;2.80;99.90;;;;;;5027119;28;20493;-70
2024/01/13 01:26:57;;;;;;;11.68;4.50;;;2.80;99.90;;;;;;5029351;28;20037;-67
2024/01/13 01:29:23;;;;;;;16.70;4.85;;;2.80;99.90;;;;;;5015598;28;20036;-69
2024/01/13 01:31:48;;;;;;;10.73;4.57;;;2.80;99.90;;;;;;5031692;28;20476;-69
2024/01/13 01:34:14;;;;;;;13.77;5.78;;;2.80;99.90;;;;;;5021357;28;20069;-67
2024/01/13 01:36:39;;;;;;;12.30;4.60;;;2.80;99.90;;;;;;5039098;28;20321;-70
2024/01/13 01:39:05;;;;;;;11.27;4.25;;;2.90;99.90;;;;;;5031150;28;20489;-73
2024/01/13 01:41:32;;;;;;;10.63;4.45;;;2.90;99.90;;;;;;5008848;28;20065;-70
2024/01/13 01:43:58;;;;;;;12.40;4.18;;;2.90;99.90;;;;;;5039106;28;20437;-69
2024/01/13 01:46:23;;;;;;;11.25;4.40;;;2.80;99.90;;;;;;5037382;28;20051;-68
2024/01/13 01:48:56;;;;;;;10.00;3.90;;;2.80;99.90;;;;;;5042532;28;20036;-71
2024/01/13 01:51:22;;;;;;;12.60;3.92;;;2.80;99.90;;;;;;5032743;28;20518;-70
2024/01/13 01:53:50;;;;;;;15.07;4.30;;;2.80;99.90;;;;;;5035734;28;20094;-71
2024/01/13 01:56:28;;;;;;;7.07;3.25;;;2.80;99.90;;;;;;5035027;28;20095;-71
2024/01/13 01:58:55;;;;;;;7.93;3.40;;;2.90;99.90;;;;;;5026694;28;20048;-70
2024/01/13 02:01:23;;;;;;;6.32;3.20;;;2.80;99.90;;;;;;5032044;28;20057;-71
2024/01/13 02:03:48;;;;;;;8.98;3.38;;;2.90;99.90;;;;;;5032338;28;20056;-70
2024/01/13 02:06:15;;;;;;;8.95;3.10;;;2.80;99.90;;;;;;5037736;28;20037;-68
2024/01/13 02:08:41;;;;;;;9.30;3.40;;;2.90;99.90;;;;;;5046062;28;20080;-71
2024/01/13 02:11:07;;;;;;;5.65;2.88;;;2.90;99.90;;;;;;5032727;28;20069;-70
2024/01/13 02:13:33;;;;;;;8.00;3.00;;;2.80;99.90;;;;;;5032226;28;20512;-70
2024/01/13 02:15:59;;;;;;;7.05;2.95;;;2.90;99.90;;;;;;5034726;28;20026;-69
2024/01/13 02:18:25;;;;;;;5.28;2.78;;;2.90;99.90;;;;;;5044556;28;20090;-71
2024/01/13 02:20:50;;;;;;;4.85;2.50;;;2.90;99.90;;;;;;5039257;28;20069;-72
2024/01/13 02:23:16;;;;;;;7.40;2.60;;;2.90;99.90;;;;;;5030006;28;20056;-71
2024/01/13 02:25:41;;;;;;;8.00;2.50;;;2.90;99.90;;;;;;5031484;28;20161;-73
2024/01/13 02:28:07;;;;;;;10.45;2.80;;;2.90;99.90;;;;;;5039616;28;20043;-71
2024/01/13 02:30:33;;;;;;;5.18;2.75;;;2.90;99.90;;;;;;5035443;28;20061;-70
2024/01/13 02:32:58;;;;;;;7.80;3.25;;;2.90;99.90;;;;;;5029884;28;20103;-70
2024/01/13 02:35:24;;;;;;;5.70;2.63;;;2.90;99.90;;;;;;5030864;28;20067;-70
2024/01/13 02:37:49;;;;;;;8.60;3.20;;;2.90;99.90;;;;;;5017847;28;20037;-69
2024/01/13 02:40:15;;;;;;;6.38;3.10;;;2.80;99.90;;;;;;5017251;28;20047;-72
2024/01/13 02:42:41;;;;;;;6.82;3.40;;;2.80;99.90;;;;;;5038306;28;20128;-72
2024/01/13 02:45:07;;;;;;;7.10;2.70;;;2.80;99.90;;;;;;5013817;28;20045;-70
2024/01/13 02:48:01;;;;;;;7.55;3.22;;;2.80;99.90;;;;;;5039637;28;20130;-74
2024/01/13 02:50:26;;;;;;;9.50;3.60;;;2.80;99.90;;;;;;5034985;28;20057;-73
2024/01/13 02:52:52;;;;;;;9.93;3.55;;;2.80;99.90;;;;;;5032142;28;20087;-71
2024/01/13 02:55:17;;;;;;;7.93;3.10;;;2.80;99.90;;;;;;5026144;28;20041;-73
2024/01/13 02:57:43;;;;;;;9.52;3.30;;;2.80;99.90;;;;;;5039046;28;20072;-72
2024/01/13 03:00:09;;;;;;;11.95;3.08;;;2.80;99.90;;;;;;5028721;28;20398;-70
2024/01/13 03:02:35;;;;;;;9.07;3.65;;;2.80;99.90;;;;;;5033895;28;20044;-70
2024/01/13 03:05:01;;;;;;;9.45;3.10;;;2.80;99.90;;;;;;5033006;28;20049;-71
2024/01/13 03:07:27;;;;;;;8.00;3.45;;;2.80;99.90;;;;;;5036323;28;20409;-70
2024/01/13 03:09:52;;;;;;;11.90;3.13;;;2.80;99.90;;;;;;5030442;28;20485;-72
2024/01/13 03:12:18;;;;;;;9.45;3.20;;;2.70;99.90;;;;;;5030839;28;20052;-72
2024/01/13 03:14:44;;;;;;;10.50;3.58;;;2.70;99.90;;;;;;5031060;28;20064;-74
2024/01/13 03:17:10;;;;;;;6.72;3.08;;;2.70;99.90;;;;;;5040712;28;20048;-70
2024/01/13 03:19:35;;;;;;;8.07;3.10;;;2.70;99.90;;;;;;5031277;28;20396;-75
2024/01/13 03:22:01;;;;;;;8.98;3.50;;;2.70;99.90;;;;;;5039305;28;20033;-72
2024/01/13 03:24:27;;;;;;;7.90;3.22;;;2.80;99.90;;;;;;5037417;28;20033;-71
2024/01/13 03:26:52;;;;;;;10.68;3.28;;;2.80;99.90;;;;;;5035371;28;20044;-70
2024/01/13 03:29:18;;;;;;;8.00;3.15;;;2.80;99.90;;;;;;5036995;28;20025;-72
2024/01/13 03:31:43;;;;;;;10.55;3.40;;;2.80;99.90;;;;;;5034527;28;20045;-68
2024/01/13 03:34:09;;;;;;;14.70;4.00;;;2.80;99.90;;;;;;5026600;28;20061;-72
2024/01/13 03:36:34;;;;;;;7.30;3.47;;;2.80;99.90;;;;;;5032996;28;20041;-72
2024/01/13 03:39:00;;;;;;;8.80;3.58;;;2.80;99.90;;;;;;5036538;28;20357;-72
2024/01/13 03:41:26;;;;;;;9.80;3.13;;;2.80;99.90;;;;;;5043010;28;20076;-71
2024/01/13 03:43:52;;;;;;;7.95;3.17;;;2.80;99.90;;;;;;5015816;28;20045;-74
2024/01/13 03:46:18;;;;;;;10.98;3.60;;;2.80;99.90;;;;;;5032125;28;20041;-71
2024/01/13 03:48:44;;;;;;;9.52;3.45;;;2.80;99.90;;;;;;5056822;28;20041;-70
2024/01/13 03:51:10;;;;;;;9.20;3.70;;;2.80;99.90;;;;;;5046224;28;20033;-69
2024/01/13 03:53:36;;;;;;;9.38;3.92;;;2.80;99.90;;;;;;5034485;28;20052;-71
2024/01/13 03:56:05;;;;;;;8.93;3.65;;;2.80;99.90;;;;;;5048490;28;20029;-71
2024/01/13 03:58:31;;;;;;;16.93;4.20;;;2.80;99.90;;;;;;5028864;28;20116;-71
2024/01/13 04:00:57;;;;;;;10.95;3.50;;;2.80;99.90;;;;;;5043468;28;20120;-70
2024/01/13 04:03:23;;;;;;;7.95;3.33;;;2.80;99.90;;;;;;5029146;28;20461;-71
2024/01/13 04:05:49;;;;;;;8.65;3.78;;;2.80;99.90;;;;;;5047371;28;20072;-71
2024/01/13 04:08:14;;;;;;;6.03;3.28;;;2.80;99.90;;;;;;5037752;28;20037;-73
2024/01/13 04:10:40;;;;;;;10.95;3.72;;;2.90;99.90;;;;;;5044418;28;20152;-75
2024/01/13 04:13:10;;;;;;;10.88;4.07;;;2.80;99.90;;;;;;5034300;28;20766;-70
2024/01/13 04:15:36;;;;;;;9.00;4.97;;;2.90;99.90;;;;;;5030405;28;20439;-71
2024/01/13 04:18:01;;;;;;;10.43;3.78;;;2.80;99.90;;;;;;5043490;28;20080;-71
2024/01/13 04:20:27;;;;;;;9.55;3.42;;;2.80;99.90;;;;;;5033673;28;20044;-69
2024/01/13 04:22:52;;;;;;;9.00;3.80;;;2.90;99.90;;;;;;5029710;28;20726;-69
2024/01/13 04:25:18;;;;;;;9.20;4.05;;;2.80;99.90;;;;;;5029594;28;20099;-72
2024/01/13 04:27:44;;;;;;;8.02;3.28;;;2.90;99.90;;;;;;5035543;28;20040;-73
2024/01/13 04:30:10;;;;;;;7.70;3.58;;;2.90;99.90;;;;;;5028309;28;20445;-73
2024/01/13 04:32:35;;;;;;;9.50;3.78;;;2.90;99.90;;;;;;5024630;28;20050;-72
2024/01/13 04:35:01;;;;;;;8.25;2.97;;;2.90;99.90;;;;;;5029968;28;20382;-72
2024/01/13 04:37:27;;;;;;;8.75;3.28;;;2.90;99.90;;;;;;5029234;28;20430;-72
2024/01/13 04:39:52;;;;;;;10.52;3.50;;;2.90;99.90;;;;;;5027283;28;20098;-73
2024/01/13 04:42:18;;;;;;;9.38;2.88;;;2.90;99.90;;;;;;5040027;28;20051;-71
2024/01/13 04:44:43;;;;;;;9.45;3.33;;;2.90;99.90;;;;;;5012699;28;20132;-74
2024/01/13 04:47:09;;;;;;;6.90;2.92;;;2.90;99.90;;;;;;5035972;28;20460;-72
2024/01/13 04:49:35;;;;;;;9.32;3.40;;;2.90;99.90;;;;;;5044697;28;20033;-72
2024/01/13 04:52:01;;;;;;;9.68;3.33;;;2.80;99.90;;;;;;5030810;28;20049;-73
2024/01/13 04:54:26;;;;;;;8.52;3.45;;;2.90;99.90;;;;;;5047608;28;20053;-75
2024/01/13 04:56:52;;;;;;;9.93;3.55;;;2.90;99.90;;;;;;5034816;28;20061;-73
2024/01/13 04:59:17;;;;;;;12.27;3.08;;;2.90;99.90;;;;;;5032240;28;20033;-77
2024/01/13 05:01:43;;;;;;;7.63;3.35;;;2.80;99.90;;;;;;5011274;28;20614;-74
2024/01/13 05:04:08;;;;;;;12.65;3.05;;;2.90;99.90;;;;;;5030886;28;20136;-75
2024/01/13 05:06:34;;;;;;;6.95;2.97;;;2.90;99.90;;;;;;5041348;28;20033;-74
2024/01/13 05:09:00;;;;;;;8.32;2.88;;;2.90;99.90;;;;;;5043130;28;20266;-79
2024/01/13 05:11:25;;;;;;;9.65;3.83;;;2.90;99.90;;;;;;5028724;28;20392;-73
2024/01/13 05:13:51;;;;;;;8.40;3.15;;;2.90;99.90;;;;;;5030040;28;20183;-77
2024/01/13 05:16:16;;;;;;;8.23;2.90;;;2.90;99.90;;;;;;5032651;28;21057;-73
2024/01/13 05:18:43;;;;;;;10.05;3.38;;;2.90;99.90;;;;;;5026647;28;20120;-74
2024/01/13 05:21:08;;;;;;;9.20;3.30;;;2.90;99.90;;;;;;5015265;28;20048;-72
2024/01/13 05:23:34;;;;;;;7.72;3.25;;;2.90;99.90;;;;;;5027509;28;20125;-75
2024/01/13 05:26:00;;;;;;;9.57;3.22;;;2.90;99.90;;;;;;5030371;28;20033;-76
2024/01/13 05:28:25;;;;;;;8.00;2.92;;;2.90;99.90;;;;;;5038822;28;20041;-73
2024/01/13 05:30:51;;;;;;;7.38;2.78;;;2.90;99.90;;;;;;5028330;28;20752;-77
2024/01/13 05:33:17;;;;;;;9.07;3.22;;;2.90;99.90;;;;;;5039670;28;20045;-74
2024/01/13 05:35:42;;;;;;;12.35;3.28;;;3.00;99.90;;;;;;5039044;28;20037;-77
2024/01/13 05:38:08;;;;;;;11.27;3.10;;;3.00;99.90;;;;;;5031478;28;20065;-76
2024/01/13 05:40:34;;;;;;;9.07;3.30;;;2.90;99.90;;;;;;5042916;28;20045;-78
2024/01/13 05:43:00;;;;;;;9.50;3.55;;;2.90;99.90;;;;;;5032270;28;20037;-72
2024/01/13 05:45:26;;;;;;;9.98;3.13;;;2.90;99.90;;;;;;5023477;28;20524;-80
2024/01/13 05:47:51;;;;;;;7.07;2.80;;;2.90;99.90;;;;;;5031328;28;20041;-77
2024/01/13 05:50:18;;;;;;;9.18;3.50;;;2.90;99.90;;;;;;5041057;28;20041;-76
2024/01/13 05:52:43;;;;;;;8.52;3.00;;;2.90;99.90;;;;;;5041022;28;20041;-75
2024/01/13 05:55:09;;;;;;;9.02;3.00;;;2.90;99.90;;;;;;5040256;28;20500;-73
2024/01/13 05:57:35;;;;;;;5.63;2.78;;;2.90;99.90;;;;;;5037282;28;20109;-73
2024/01/13 06:00:00;;;;;;;7.72;2.88;;;2.80;99.90;;;;;;5031095;28;20052;-69
2024/01/13 06:02:26;;;;;;;10.40;2.80;;;2.90;99.90;;;;;;5035962;28;20060;-71
2024/01/13 06:04:51;;;;;;;8.02;2.47;;;2.90;99.90;;;;;;5033759;28;20033;-70
2024/01/13 06:07:17;;;;;;;9.15;2.60;;;2.90;99.90;;;;;;5037804;28;20033;-77
2024/01/13 06:09:43;;;;;;;7.97;2.53;;;2.80;99.90;;;;;;5038288;28;20111;-74
2024/01/13 06:12:09;;;;;;;5.65;2.50;;;2.80;99.90;;;;;;5036619;28;20033;-75
2024/01/13 06:14:34;;;;;;;9.35;3.75;;;2.80;99.90;;;;;;5043333;28;20136;-75
2024/01/13 06:17:00;;;;;;;5.80;2.20;;;2.80;99.90;;;;;;5039307;28;20069;-76
2024/01/13 06:19:26;;;;;;;6.25;2.30;;;2.80;99.90;;;;;;5033612;28;20091;-75
2024/01/13 06:21:51;;;;;;;6.13;2.30;;;2.80;99.90;;;;;;5042546;28;20633;-75
2024/01/13 06:24:17;;;;;;;11.52;2.40;;;2.80;99.90;;;;;;5032175;28;20043;-74
2024/01/13 06:26:43;;;;;;;5.75;2.00;;;2.80;99.90;;;;;;5034025;28;20041;-73
2024/01/13 06:29:10;;;;;;;2.95;1.67;;;2.80;99.90;;;;;;5049501;28;20120;-78
2024/01/13 06:31:35;;;;;;;4.32;2.13;;;2.90;99.90;;;;;;5038019;28;20053;-73
2024/01/13 06:34:01;;;;;;;5.93;2.10;;;2.90;99.90;;;;;;5035852;28;20036;-71
2024/01/13 06:36:27;;;;;;;7.20;2.00;;;2.90;99.90;;;;;;5039178;28;20040;-73
2024/01/13 06:38:54;;;;;;;4.68;1.90;;;2.90;99.90;;;;;;5033597;28;20107;-75
2024/01/13 06:41:19;;;;;;;5.85;2.05;;;2.90;99.90;;;;;;5026956;28;20056;-69
2024/01/13 06:43:45;;;;;;;7.50;2.00;;;2.90;99.90;;;;;;5029656;28;20025;-73
2024/01/13 06:46:11;;;;;;;3.63;1.52;;;2.90;99.90;;;;;;5032217;28;20033;-71
2024/01/13 06:48:37;;;;;;;5.63;2.03;;;2.90;99.90;;;;;;5033145;28;20048;-71
2024/01/13 06:51:03;;;;;;;3.63;1.67;;;2.90;99.90;;;;;;5035107;28;20033;-74
2024/01/13 06:53:28;;;;;;;4.80;1.83;;;2.90;99.90;;;;;;5035037;28;20144;-73
2024/01/13 06:55:54;;;;;;;5.35;2.40;;;2.90;99.90;;;;;;5029728;28;20045;-71
2024/01/13 06:58:20;;;;;;;4.50;1.55;;;2.90;99.90;;;;;;5037102;28;20045;-76
2024/01/13 07:00:45;;;;;;;3.72;1.70;;;2.90;99.90;;;;;;5038271;28;20037;-72
2024/01/13 07:03:11;;;;;;;4.32;1.60;;;2.90;99.90;;;;;;5030105;28;20037;-75
2024/01/13 07:05:37;;;;;;;3.03;1.60;;;2.90;99.90;;;;;;5016179;28;20117;-73
2024/01/13 07:08:04;;;;;;;3.67;1.58;;;2.90;99.90;;;;;;5036852;28;20045;-76
2024/01/13 07:10:30;;;;;;;5.78;1.73;;;2.80;99.90;;;;;;5041225;28;20042;-74
2024/01/13 07:12:57;;;;;;;4.43;2.00;;;2.80;99.90;;;;;;5031166;28;20120;-72
2024/01/13 07:15:23;;;;;;;5.03;1.70;;;2.80;99.90;;;;;;5029003;28;20052;-69
2024/01/13 07:17:48;;;;;;;5.45;1.80;;;2.80;99.90;;;;;;5043820;28;20041;-70
2024/01/13 07:20:14;;;;;;;5.95;2.25;;;2.80;99.90;;;;;;5042546;28;20032;-73
2024/01/13 07:22:40;;;;;;;4.82;1.98;;;2.90;99.90;;;;;;5014264;28;20044;-72
2024/01/13 07:25:07;;;;;;;5.30;2.20;;;2.80;99.90;;;;;;5032336;28;20044;-72
2024/01/13 07:27:32;;;;;;;5.82;2.00;;;2.80;99.90;;;;;;5015996;28;20111;-72
2024/01/13 07:30:04;;;;;;;5.00;1.98;;;2.90;99.90;;;;;;5041284;28;20037;-70
2024/01/13 07:32:30;;;;;;;5.60;1.92;;;2.90;99.90;;;;;;5036757;28;20072;-74
2024/01/13 07:34:55;;;;;;;4.63;1.83;;;2.90;99.90;;;;;;5022340;28;20033;-73
2024/01/13 07:37:21;;;;;;;5.93;1.95;;;2.90;99.90;;;;;;5025537;28;20041;-73
2024/01/13 07:39:46;;;;;;;6.35;2.13;;;3.00;99.90;;;;;;5037433;28;20512;-71
2024/01/13 07:42:12;;;;;;;3.58;1.65;;;2.90;99.90;;;;;;5032569;28;20048;-74
2024/01/13 07:44:37;;;;;;;5.82;1.95;;;2.90;99.90;;;;;;5030939;28;20064;-78
2024/01/13 07:47:03;;;;;;;4.40;1.60;;;2.90;99.90;;;;;;5029851;28;20537;-73
2024/01/13 07:49:29;;;;;;;4.82;1.50;;;2.90;99.90;;;;;;5030465;28;20049;-74
2024/01/13 07:51:56;;;;;;;2.95;1.02;;;2.90;99.90;;;;;;5030867;28;20496;-75
2024/01/13 07:54:22;;;;;;;5.18;1.88;;;2.90;99.90;;;;;;5036295;28;20071;-72
2024/01/13 07:56:49;;;;;;;3.65;1.52;;;2.90;99.90;;;;;;5050934;28;20033;-71
2024/01/13 07:59:16;;;;;;;5.03;1.65;;;2.90;99.90;;;;;;5024976;28;20633;-74
2024/01/13 08:01:42;;;;;;;3.92;1.83;;;2.90;99.90;;;;;;5049888;28;20465;-77
2024/01/13 08:04:08;;;;;;;3.60;1.40;;;2.90;99.90;;;;;;5039553;28;20053;-74
2024/01/13 08:06:34;;;;;;;4.22;1.58;;;3.00;99.90;;;;;;5030424;28;20049;-76
2024/01/13 08:08:59;;;;;;;5.50;2.05;;;3.00;99.90;;;;;;5028855;28;20367;-74
2024/01/13 08:11:25;;;;;;;4.03;1.83;;;3.00;99.90;;;;;;5030941;28;20107;-74
2024/01/13 08:13:50;;;;;;;5.43;2.10;;;3.00;99.90;;;;;;5029833;28;20038;-76
2024/01/13 08:16:16;;;;;;;9.30;4.00;;;3.00;99.90;;;;;;5029887;28;20099;-74
2024/01/13 08:18:42;;;;;;;9.27;4.22;;;3.00;99.90;;;;;;5030684;28;20068;-76
2024/01/13 08:21:08;;;;;;;12.13;4.85;;;3.00;99.90;;;;;;5014286;28;20152;-76
2024/01/13 08:23:34;;;;;;;10.48;4.70;;;3.00;99.90;;;;;;5029316;28;20033;-76
2024/01/13 08:26:00;;;;;;;11.32;4.57;;;3.00;99.90;;;;;;5032004;28;20040;-73
2024/01/13 08:28:26;;;;;;;16.17;6.15;;;3.10;99.90;;;;;;5029610;28;20045;-75
2024/01/13 08:30:51;;;;;;;14.60;6.30;;;3.10;99.90;;;;;;5013155;28;20053;-74
2024/01/13 08:33:17;;;;;;;20.40;7.10;;;3.10;99.90;;;;;;5029813;28;20064;-76
2024/01/13 08:35:43;;;;;;;21.38;6.90;;;3.10;99.90;;;;;;5029682;28;20534;-74
2024/01/13 08:38:09;;;;;;;20.13;8.07;;;3.10;99.90;;;;;;5027881;28;20559;-75
2024/01/13 08:40:35;;;;;;;24.48;8.05;;;3.10;99.90;;;;;;5030884;28;20153;-77
2024/01/13 08:43:02;;;;;;;21.63;8.10;;;3.10;99.90;;;;;;5030137;28;20045;-75
2024/01/13 08:45:29;;;;;;;26.55;8.93;;;3.10;99.90;;;;;;5034168;28;20077;-74
2024/01/13 08:47:57;;;;;;;25.75;9.05;;;3.10;99.90;;;;;;5028927;28;20045;-74
2024/01/13 08:50:23;;;;;;;25.27;9.05;;;3.10;99.90;;;;;;5049013;28;20086;-73
2024/01/13 08:52:51;;;;;;;24.15;9.38;;;3.10;99.90;;;;;;5031693;28;20056;-72
2024/01/13 08:55:18;;;;;;;29.80;10.52;;;3.20;99.90;;;;;;5047302;28;20029;-75
2024/01/13 08:57:44;;;;;;;28.95;10.57;;;3.20;99.90;;;;;;5029880;28;20041;-74
2024/01/13 09:00:10;;;;;;;27.20;9.30;;;3.20;99.90;;;;;;5028646;28;20098;-75
2024/01/13 09:02:39;;;;;;;30.60;10.27;;;3.20;99.90;;;;;;5047441;28;20055;-73
2024/01/13 09:05:08;;;;;;;32.25;10.93;;;3.20;99.90;;;;;;5034011;28;20033;-75
2024/01/13 09:07:35;;;;;;;35.88;11.70;;;3.20;99.90;;;;;;5030486;28;20053;-77
2024/01/13 09:10:01;;;;;;;37.13;11.80;;;3.20;99.90;;;;;;5029092;28;20640;-75
2024/01/13 09:12:26;;;;;;;42.53;13.20;;;3.20;99.90;;;;;;5030383;28;20041;-74
2024/01/13 09:14:52;;;;;;;41.97;14.05;;;3.20;99.90;;;;;;5036096;28;20474;-72
2024/01/13 09:17:17;;;;;;;39.58;14.77;;;3.20;99.90;;;;;;5035155;28;20037;-71
2024/01/13 09:19:43;;;;;;;53.33;15.90;;;3.20;99.90;;;;;;5039870;28;20060;-72
2024/01/13 09:22:09;;;;;;;46.33;15.35;;;3.20;99.90;;;;;;5028086;28;20454;-72
2024/01/13 09:24:34;;;;;;;52.63;17.73;;;3.20;99.90;;;;;;5029006;28;20477;-74
2024/01/13 09:27:00;;;;;;;51.45;15.95;;;3.20;99.90;;;;;;5036965;28;20029;-71
2024/01/13 09:29:26;;;;;;;49.67;16.70;;;3.20;99.90;;;;;;5042301;28;20088;-69
2024/01/13 09:31:52;;;;;;;58.25;18.30;;;3.20;99.90;;;;;;5035405;28;20045;-76
2024/01/13 09:34:18;;;;;;;54.08;17.88;;;3.20;99.90;;;;;;5040308;28;20040;-75
2024/01/13 09:36:47;;;;;;;60.70;19.58;;;3.20;99.90;;;;;;5047793;28;20033;-71
2024/01/13 09:39:14;;;;;;;60.55;21.77;;;3.20;99.90;;;;;;5038246;28;20036;-70
2024/01/13 09:41:49;;;;;;;58.85;19.85;;;3.20;99.90;;;;;;5036531;28;20485;-74
2024/01/13 09:44:21;;;;;;;65.97;22.35;;;3.30;99.90;;;;;;5030691;28;20037;-72
2024/01/13 09:46:49;;;;;;;61.55;21.10;;;3.30;99.90;;;;;;5036145;28;20128;-67
2024/01/13 09:49:17;;;;;;;69.07;22.58;;;3.30;99.90;;;;;;5032095;28;20036;-76
2024/01/13 09:51:43;;;;;;;67.88;21.52;;;3.30;99.90;;;;;;5037572;28;20037;-75
2024/01/13 09:54:14;;;;;;;66.88;22.20;;;3.30;99.90;;;;;;5033656;28;20123;-74
2024/01/13 09:56:45;;;;;;;71.60;23.35;;;3.30;99.90;;;;;;5033340;28;20071;-73
2024/01/13 09:59:12;;;;;;;78.30;23.05;;;3.30;99.90;;;;;;5035749;28;20485;-75
2024/01/13 10:01:38;;;;;;;79.32;24.63;;;3.30;99.90;;;;;;5042334;28;20072;-74
2024/01/13 10:04:07;;;;;;;76.50;26.50;;;3.30;99.90;;;;;;5046180;28;20051;-73
2024/01/13 10:06:34;;;;;;;72.32;23.20;;;3.30;99.90;;;;;;5048215;28;20033;-72
2024/01/13 10:09:00;;;;;;;72.72;23.10;;;3.30;99.90;;;;;;5044200;28;20072;-71
2024/01/13 10:11:27;;;;;;;75.75;27.02;;;3.30;99.90;;;;;;5048932;28;20048;-77
2024/01/13 10:14:12;;;;;;;71.45;26.27;;;3.30;99.90;;;;;;5044815;28;20033;-73
2024/01/13 10:16:37;;;;;;;78.20;27.52;;;3.30;99.90;;;;;;5035043;28;20600;-74
2024/01/13 10:19:05;;;;;;;74.22;25.35;;;3.30;99.90;;;;;;5035719;28;20119;-70
2024/01/13 10:21:32;;;;;;;80.85;26.55;;;3.40;99.90;;;;;;5040914;28;20975;-72
2024/01/13 10:23:59;;;;;;;80.35;27.42;;;3.40;99.90;;;;;;5040881;28;20032;-70
2024/01/13 10:26:25;;;;;;;82.53;27.00;;;3.40;99.90;;;;;;5049818;28;20044;-74
2024/01/13 10:28:51;;;;;;;77.55;26.77;;;3.40;99.90;;;;;;5047098;28;20343;-72
2024/01/13 10:31:18;;;;;;;80.55;26.25;;;3.40;99.90;;;;;;5037377;28;20088;-74
2024/01/13 10:33:48;;;;;;;80.25;28.27;;;3.30;99.90;;;;;;5049628;28;20044;-76
2024/01/13 10:36:24;;;;;;;81.95;27.48;;;3.30;99.90;;;;;;5019278;28;20029;-72
2024/01/13 10:38:51;;;;;;;82.75;29.15;;;3.30;99.90;;;;;;5044236;28;20488;-75
2024/01/13 10:41:21;;;;;;;81.85;28.20;;;3.30;99.90;;;;;;5038840;28;20045;-76
2024/01/13 10:43:49;;;;;;;;;;;3.40;99.90;;;;;;5042270;28;20385;-69
2024/01/13 10:46:21;;;;;;;73.13;25.88;;;3.30;99.90;;;;;;5032424;28;19933;-73
2024/01/13 10:48:51;;;;;;;75.00;26.48;;;3.30;93.70;;;;;;5046172;28;20069;-73
2024/01/13 10:51:29;;;;;;;70.35;27.58;;;3.40;93.70;;;;;;5038417;28;20044;-72
2024/01/13 10:54:00;;;;;;;81.80;28.40;;;3.40;98.80;;;;;;5022328;28;20033;-74
2024/01/13 10:56:30;;;;;;;71.60;24.95;;;3.40;78.00;;;;;;5037932;28;20076;-71
2024/01/13 10:58:57;;;;;;;75.18;28.42;;;3.40;91.50;;;;;;5040161;28;20041;-72
2024/01/13 11:01:24;;;;;;;76.25;28.08;;;3.40;96.00;;;;;;5036449;28;20038;-70
2024/01/13 11:03:50;;;;;;;73.70;27.02;;;3.40;97.90;;;;;;5049054;28;20045;-74
2024/01/13 11:06:16;;;;;;;76.57;27.80;;;3.50;91.00;;;;;;5041638;28;20073;-74
2024/01/13 11:08:44;;;;;;;81.68;27.83;;;3.60;98.10;;;;;;5042312;28;20088;-75
2024/01/13 11:11:12;;;;;;;73.90;25.95;;;3.60;99.60;;;;;;5035848;28;20069;-73
2024/01/13 11:13:44;;;;;;;71.82;26.48;;;3.60;99.90;;;;;;5034457;28;20174;-75
2024/01/13 11:16:14;;;;;;;65.82;23.60;;;3.60;99.90;;;;;;5050256;28;20055;-75
2024/01/13 11:18:48;;;;;;;64.82;25.25;;;3.60;58.20;;;;;;5049125;28;20461;-76
2024/01/13 11:21:16;;;;;;;63.83;24.52;;;3.60;93.30;;;;;;5030243;28;20045;-72
2024/01/13 11:23:54;;;;;;;68.38;26.05;;;3.60;40.10;;;;;;5033949;28;20081;-71
2024/01/13 11:26:22;;;;;;;68.20;25.10;;;3.60;20.00;;;;;;5032839;28;20076;-69
2024/01/13 11:28:53;;;;;;;59.97;24.45;;;3.60;20.40;;;;;;5033381;28;20696;-73
2024/01/13 11:31:32;;;;;;;67.35;25.88;;;3.60;41.70;;;;;;5048401;28;20622;-74
2024/01/13 11:34:02;;;;;;;58.38;22.83;;;3.60;21.00;;;;;;5039770;28;20052;-72
2024/01/13 11:36:29;;;;;;;61.90;24.75;;;3.60;43.40;;;;;;5030606;28;20049;-74
2024/01/13 11:38:57;;;;;;;67.65;24.77;;;3.60;30.70;;;;;;5029753;28;20033;-73
2024/01/13 11:41:23;;;;;;;55.92;23.95;;;3.60;36.80;;;;;;5031794;28;20041;-73
2024/01/13 11:43:49;;;;;;;63.95;25.20;;;3.60;43.50;;;;;;5044093;28;20381;-71
2024/01/13 11:46:15;;;;;;;67.20;26.83;;;3.60;34.20;;;;;;5018521;28;20037;-71
2024/01/13 11:48:41;;;;;;;68.70;26.10;;;3.50;1.00;;;;;;5040244;28;20572;-70
2024/01/13 11:51:18;;;;;;;55.45;22.98;;;3.50;9.40;;;;;;5048328;28;20409;-72
2024/01/13 11:53:44;;;;;;;66.10;25.63;;;3.60;1.00;;;;;;5048091;28;20094;-70
2024/01/13 11:56:13;;;;;;;61.42;25.08;;;3.60;1.00;;;;;;5034443;28;20041;-71
2024/01/13 11:58:40;;;;;;;58.88;24.08;;;3.50;7.80;;;;;;5039274;28;20041;-71
2024/01/13 12:01:08;;;;;;;58.25;24.98;;;3.60;1.00;;;;;;5039065;28;20044;-71
2024/01/13 12:03:34;;;;;;;59.95;24.67;;;3.60;1.00;;;;;;5033102;28;20128;-71
2024/01/13 12:06:00;;;;;;;54.55;22.73;;;3.60;1.00;;;;;;5019408;28;20629;-70
2024/01/13 12:08:27;;;;;;;56.25;22.38;;;3.70;1.00;;;;;;5031068;28;20052;-72
2024/01/13 12:10:53;;;;;;;58.28;22.08;;;3.70;1.70;;;;;;5031920;28;20048;-72
2024/01/13 12:13:21;;;;;;;54.88;21.83;;;3.70;1.00;;;;;;5017796;28;20034;-72
2024/01/13 12:15:48;;;;;;;55.65;22.10;;;3.70;1.00;;;;;;5030722;28;20059;-73
2024/01/13 12:18:21;;;;;;;55.38;21.33;;;3.70;1.00;;;;;;5036515;28;20357;-72
2024/01/13 12:20:55;;;;;;;44.88;18.83;;;3.70;1.00;;;;;;5037139;28;20385;-75
2024/01/13 12:23:21;;;;;;;49.85;19.42;;;3.80;1.00;;;;;;5041456;28;20076;-74
2024/01/13 12:25:46;;;;;;;47.22;18.90;;;3.80;1.00;;;;;;5032996;28;20100;-74
2024/01/13 12:28:12;;;;;;;54.95;21.48;;;3.80;1.00;;;;;;5043326;28;20052;-70
2024/01/13 12:30:39;;;;;;;48.92;19.63;;;3.80;1.00;;;;;;5049116;28;20093;-73
2024/01/13 12:33:06;;;;;;;48.67;19.63;;;3.80;6.60;;;;;;5049292;28;20044;-71
2024/01/13 12:35:32;;;;;;;42.40;17.95;;;3.80;14.50;;;;;;5050100;28;20657;-71
2024/01/13 12:37:58;;;;;;;45.80;17.80;;;3.80;32.90;;;;;;5035948;28;20036;-71
2024/01/13 12:40:24;;;;;;;43.85;17.48;;;3.80;31.50;;;;;;5038514;28;20064;-72
2024/01/13 12:42:50;;;;;;;48.70;17.73;;;3.80;36.00;;;;;;5032324;28;20110;-71
2024/01/13 12:45:17;;;;;;;43.65;17.40;;;3.80;38.30;;;;;;5045703;28;20485;-71
2024/01/13 12:47:44;;;;;;;43.55;15.65;;;3.80;59.30;;;;;;5015978;28;20067;-70